Toronto Express — ZCET5 — position and weather

sailwx.info

Track history (hours):
 
Tides and Currents Weather Stations Pressure Air Temp Water Temp Dewpoint Dewpoint Depression Visibility Wind Speed Wind Dir Waves Ship Positions

Toronto Express

Last reported at 2018-Feb-18 01:31 UTC. Time now 2018-Feb-18 01:43 UTC.
Position N 53°38' E 009°32'.

Length 294 m; draft 11 m.

Type: Cargo ship. MMSI: 310749000.

Date/timePositionNaut miles runAvg speedWind from/ knotsBaromVisibWave heightAir tempDewpointWater temp
2018-Feb-18 01:31N 53°38' E 009°32'510.1
2018-Feb-18 01:00N 53°35' E 009°38'4 8.2
2018-Feb-18 00:30N 53°34' E 009°44'3 6.3
2018-Feb-18 00:01N 53°33' E 009°49'4 8.4
2018-Feb-17 23:31N 53°32' E 009°56'2 3.6
2018-Feb-17 23:00N 53°30' E 009°56'0 0.0
2018-Feb-17 22:30N 53°30' E 009°56'0 0.0
2018-Feb-17 22:00N 53°30' E 009°56'0 0.0
2018-Feb-17 21:30N 53°30' E 009°56'0 0.0
2018-Feb-17 21:00N 53°30' E 009°56'0 0.0
2018-Feb-17 20:30N 53°30' E 009°56'0 0.0
2018-Feb-17 20:00N 53°30' E 009°56'0 0.0
2018-Feb-17 19:30N 53°30' E 009°56'0 0.0
2018-Feb-17 19:00N 53°30' E 009°56'0 0.0
2018-Feb-17 18:30N 53°30' E 009°56'0 0.0
2018-Feb-17 18:00N 53°30' E 009°56'0 0.0
2018-Feb-17 17:30N 53°30' E 009°56'0 0.0
2018-Feb-17 17:00N 53°30' E 009°56'0 0.0
2018-Feb-17 16:30N 53°30' E 009°56'0 0.0
2018-Feb-17 16:00N 53°30' E 009°56'0 0.0
2018-Feb-17 15:30N 53°30' E 009°56'0 0.0
2018-Feb-17 15:00N 53°30' E 009°56'0 0.0
2018-Feb-17 14:30N 53°30' E 009°56'0 0.0
2018-Feb-17 14:00N 53°30' E 009°56'0 0.0
2018-Feb-17 13:30N 53°30' E 009°56'0 0.0
2018-Feb-17 13:00N 53°30' E 009°56'0 0.0
2018-Feb-17 12:30N 53°30' E 009°56'0 0.0
2018-Feb-17 12:00N 53°30' E 009°56'0 0.0
2018-Feb-17 11:30N 53°30' E 009°56'0 0.0
2018-Feb-17 11:00N 53°30' E 009°56'0 0.0
2018-Feb-17 10:30N 53°30' E 009°56'0 0.0
2018-Feb-17 10:00N 53°30' E 009°56'0 0.0
2018-Feb-17 09:30N 53°30' E 009°56'0 0.0
2018-Feb-17 09:00N 53°30' E 009°56'0 0.0
2018-Feb-17 08:30N 53°30' E 009°56'0 0.0
2018-Feb-17 08:00N 53°30' E 009°56'0 0.0
2018-Feb-17 07:30N 53°30' E 009°56'0 0.0
2018-Feb-17 07:00N 53°30' E 009°56'0 0.0
2018-Feb-17 06:30N 53°30' E 009°56'0 0.0
2018-Feb-17 06:00N 53°30' E 009°56'0 0.0
2018-Feb-17 05:30N 53°30' E 009°56'0 0.0
2018-Feb-17 05:00N 53°30' E 009°56'0 0.0
2018-Feb-17 04:30N 53°30' E 009°56'0 0.0
2018-Feb-17 04:00N 53°30' E 009°56'0 0.0
2018-Feb-17 03:30N 53°30' E 009°56'0 0.0
2018-Feb-17 03:00N 53°30' E 009°56'0 0.0
2018-Feb-17 02:30N 53°30' E 009°56'0 0.0
2018-Feb-17 02:00N 53°30' E 009°56'0 0.0
2018-Feb-17 01:30N 53°30' E 009°56'0 0.0
2018-Feb-17 01:00N 53°30' E 009°56'0 0.0
2018-Feb-17 00:30N 53°30' E 009°56'0 0.0
2018-Feb-17 00:00N 53°30' E 009°56'0 0.0
2018-Feb-16 23:30N 53°30' E 009°56'0 0.0
2018-Feb-16 23:00N 53°30' E 009°56'0 0.0
2018-Feb-16 22:30N 53°30' E 009°56'0 0.0
2018-Feb-16 22:00N 53°30' E 009°56'0 0.0
2018-Feb-16 21:30N 53°30' E 009°56'0 0.0
2018-Feb-16 21:00N 53°30' E 009°56'0 0.0
2018-Feb-16 20:30N 53°30' E 009°56'0 0.0
2018-Feb-16 20:00N 53°30' E 009°56'0 0.0
2018-Feb-16 19:30N 53°30' E 009°56'0 0.0
2018-Feb-16 19:00N 53°30' E 009°56'0 0.0
2018-Feb-16 18:30N 53°30' E 009°56'0 0.0
2018-Feb-16 18:00N 53°30' E 009°56'0 0.4
2018-Feb-16 17:31N 53°30' E 009°56'3 5.2
2018-Feb-16 17:00N 53°32' E 009°54'4 8.6
2018-Feb-16 16:31N 53°33' E 009°47'510.9
2018-Feb-16 16:01N 53°34' E 009°38'611.9
2018-Feb-16 15:30N 53°39' E 009°31'612.1
2018-Feb-16 15:01N 53°44' E 009°27'713.3
2018-Feb-16 14:30N 53°50' E 009°21'713.2
2018-Feb-16 14:00N 53°53' E 009°11'610.7
2018-Feb-16 13:29N 53°52' E 009°02'714.9
2018-Feb-16 13:00N 53°50' E 008°50'611.3
2018-Feb-16 12:30N 53°53' E 008°42'714.6
2018-Feb-16 12:00N 53°58' E 008°32'919.0
2018-Feb-16 11:31N 53°60' E 008°17'815.4
2018-Feb-16 11:00N 53°59' E 008°03'5 9.3
2018-Feb-16 10:30N 53°58' E 007°56'4 8.4
2018-Feb-16 09:59N 53°57' E 007°48'7113.4
2018-Feb-16 04:42N 53°40' E 005°52'314.1
2018-Feb-16 04:30N 53°39' E 005°48'713.9
2018-Feb-16 04:00N 53°37' E 005°37'713.8
2018-Feb-16 03:29N 53°34' E 005°26'1713.8
2018-Feb-16 02:14N 53°28' E 004°58'313.8
2018-Feb-16 02:00N 53°27' E 004°53'2013.1
2018-Feb-16 00:30N 53°12' E 004°33'713.5
2018-Feb-16 00:00N 53°06' E 004°27'713.4
2018-Feb-15 23:30N 53°00' E 004°21'713.6
2018-Feb-15 23:00N 52°54' E 004°16'713.5
2018-Feb-15 22:31N 52°48' E 004°11'713.8
2018-Feb-15 22:01N 52°43' E 004°04'714.0
2018-Feb-15 21:30N 52°37' E 003°57'713.7
2018-Feb-15 21:00N 52°32' E 003°50'713.4
2018-Feb-15 20:30N 52°28' E 003°41'714.7
2018-Feb-15 20:00N 52°22' E 003°34'815.8
2018-Feb-15 19:30N 52°15' E 003°30'917.9
2018-Feb-15 19:01N 52°06' E 003°25'1019.8
2018-Feb-15 18:31N 51°57' E 003°22'1020.0
2018-Feb-15 17:59N 51°47' E 003°16'612.0
2018-Feb-15 17:30N 51°41' E 003°13'1019.2
2018-Feb-15 17:00N 51°32' E 003°07'816.8
2018-Feb-15 16:30N 51°25' E 003°02'1019.9
2018-Feb-15 16:00N 51°25' E 003°18'1020.3
2018-Feb-15 15:30N 51°26' E 003°34'510.6
2018-Feb-15 15:00N 51°25' E 003°42'713.9
2018-Feb-15 14:30N 51°21' E 003°51'611.6
2018-Feb-15 14:00N 51°25' E 003°58'3 6.8
2018-Feb-15 13:30N 51°23' E 004°02'510.4
2018-Feb-15 13:00N 51°24' E 004°11'5 9.3
2018-Feb-15 12:30N 51°20' E 004°16'3 5.5
2018-Feb-15 11:59N 51°18' E 004°16'0 0.0
2018-Feb-15 11:26N 51°18' E 004°16'0 0.0
2018-Feb-15 10:59N 51°18' E 004°16'0 0.0
2018-Feb-15 10:26N 51°18' E 004°16'0 0.0
2018-Feb-15 09:59N 51°18' E 004°16'0 0.0
2018-Feb-15 09:26N 51°18' E 004°16'0 0.0
2018-Feb-15 08:59N 51°18' E 004°16'0 0.0
2018-Feb-15 08:29N 51°18' E 004°16'0 0.0
2018-Feb-15 07:53N 51°18' E 004°16'0 0.0
2018-Feb-15 07:26N 51°18' E 004°16'0 0.0
2018-Feb-15 06:59N 51°18' E 004°16'0 0.0
2018-Feb-15 06:29N 51°18' E 004°16'0 0.0
2018-Feb-15 05:50N 51°18' E 004°16'0 0.0
2018-Feb-15 05:29N 51°18' E 004°16'0 0.0
2018-Feb-15 04:59N 51°18' E 004°16'0 0.0
2018-Feb-15 04:26N 51°18' E 004°16'0 0.0
2018-Feb-15 03:59N 51°18' E 004°16'0 0.0
2018-Feb-15 03:29N 51°18' E 004°16'0 0.0
2018-Feb-15 02:59N 51°18' E 004°16'0 0.0
2018-Feb-15 02:29N 51°18' E 004°16'0 0.0
2018-Feb-15 01:59N 51°18' E 004°16'0 0.0
2018-Feb-15 01:29N 51°18' E 004°16'0 0.0
2018-Feb-15 00:59N 51°18' E 004°16'0 0.0
2018-Feb-15 00:29N 51°18' E 004°16'0 0.0
2018-Feb-14 23:59N 51°18' E 004°16'0 0.0
2018-Feb-14 23:29N 51°18' E 004°16'0 0.0
2018-Feb-14 22:56N 51°18' E 004°16'0 0.0
2018-Feb-14 22:29N 51°18' E 004°16'0 0.0
2018-Feb-14 21:59N 51°18' E 004°16'0 0.0
2018-Feb-14 21:29N 51°18' E 004°16'0 0.0
2018-Feb-14 20:59N 51°18' E 004°16'0 0.0
2018-Feb-14 20:29N 51°18' E 004°16'0 0.0
2018-Feb-14 19:59N 51°18' E 004°16'0 0.0
2018-Feb-14 19:26N 51°18' E 004°16'0 0.0
2018-Feb-14 18:56N 51°18' E 004°16'0 0.0
2018-Feb-14 18:29N 51°18' E 004°16'0 0.0
2018-Feb-14 17:59N 51°18' E 004°16'0 0.0
2018-Feb-14 17:29N 51°18' E 004°16'0 0.0
2018-Feb-14 16:59N 51°18' E 004°16'0 0.0
2018-Feb-14 16:26N 51°18' E 004°16'0 0.0
2018-Feb-14 15:59N 51°18' E 004°16'0 0.0
2018-Feb-14 15:30N 51°18' E 004°16'0 0.2
2018-Feb-14 15:00N 51°18' E 004°16'1 2.8
2018-Feb-14 14:30N 51°19' E 004°16'5 9.1
2018-Feb-14 14:00N 51°23' E 004°13'611.9
2018-Feb-14 13:30N 51°22' E 004°03'4 8.3
2018-Feb-14 13:00N 51°25' E 003°58'714.0
2018-Feb-14 12:30N 51°21' E 003°48'815.2
2018-Feb-14 12:00N 51°26' E 003°39'4 8.5
2018-Feb-14 11:30N 51°25' E 003°33'4 7.0
2018-Feb-14 11:00N 51°25' E 003°27'5 9.3
2018-Feb-14 10:30N 51°24' E 003°20'815.7
2018-Feb-14 10:01N 51°24' E 003°07'1020.6
2018-Feb-14 09:31N 51°25' E 002°51'713.8
2018-Feb-14 09:01N 51°22' E 002°41'611.5
2018-Feb-14 08:31N 51°22' E 002°32'1019.6
2018-Feb-14 08:00N 51°18' E 002°17'917.5
2018-Feb-14 07:30N 51°14' E 002°05'613.0
2018-Feb-14 07:00N 51°12' E 001°55'816.2
2018-Feb-14 06:30N 51°07' E 001°45'816.4
2018-Feb-14 06:01N 51°01' E 001°36'714.5
2018-Feb-14 05:30N 50°56' E 001°28'612.6
2018-Feb-14 05:00N 50°50' E 001°25'612.7
2018-Feb-14 04:30N 50°44' E 001°22'713.1
2018-Feb-14 04:00N 50°39' E 001°15'713.3
2018-Feb-14 03:30N 50°35' E 001°07'713.2
2018-Feb-14 03:00N 50°31' E 000°59'613.2
2018-Feb-14 02:30N 50°29' E 000°49'713.3
2018-Feb-14 02:00N 50°27' E 000°39'713.4
2018-Feb-14 01:30N 50°25' E 000°29'713.3
2018-Feb-14 01:00N 50°23' E 000°19'713.2
2018-Feb-14 00:30N 50°22' E 000°09'713.5
2018-Feb-14 00:00N 50°21' W 000°02'815.8
2018-Feb-13 23:30N 50°21' W 000°14'714.8
2018-Feb-13 23:00N 50°23' W 000°25'815.9
2018-Feb-13 22:30N 50°26' W 000°37'1019.7
2018-Feb-13 22:00N 50°33' W 000°48'917.9
2018-Feb-13 21:30N 50°40' W 000°56'611.8
2018-Feb-13 21:00N 50°44' W 001°04'917.0
2018-Feb-13 20:30N 50°46' W 001°16'5 9.5
2018-Feb-13 20:00N 50°51' W 001°20'4 8.8
2018-Feb-13 19:31N 50°54' W 001°25'1 2.8
2018-Feb-13 19:01N 50°54' W 001°27'0 0.0
2018-Feb-13 18:30N 50°54' W 001°27'0 0.0
2018-Feb-13 18:00N 50°54' W 001°27'0 0.0
2018-Feb-13 17:30N 50°54' W 001°27'0 0.0
2018-Feb-13 17:00N 50°54' W 001°27'0 0.0
2018-Feb-13 16:30N 50°54' W 001°27'0 0.0
2018-Feb-13 16:00N 50°54' W 001°27'0 0.0
2018-Feb-13 15:30N 50°54' W 001°27'0 0.0
2018-Feb-13 15:00N 50°54' W 001°27'0 0.0
2018-Feb-13 14:30N 50°54' W 001°27'0 0.0
2018-Feb-13 14:00N 50°54' W 001°27'0 0.0
2018-Feb-13 13:30N 50°54' W 001°27'0 0.0
2018-Feb-13 13:00N 50°54' W 001°27'0 0.0
2018-Feb-13 12:30N 50°54' W 001°27'0 0.0
2018-Feb-13 11:21N 50°54' W 001°27'0 0.0
2018-Feb-13 10:57N 50°54' W 001°27'0 0.0
2018-Feb-13 10:30N 50°54' W 001°27'0 0.0
2018-Feb-13 09:06N 50°54' W 001°27'0 0.0
2018-Feb-13 09:00N 50°54' W 001°27'0 0.0
2018-Feb-13 08:30N 50°54' W 001°27'0 0.0
2018-Feb-13 07:54N 50°54' W 001°27'0 0.0
2018-Feb-13 07:30N 50°54' W 001°27'0 0.0
2018-Feb-13 07:00N 50°54' W 001°27'0 0.0
2018-Feb-13 06:30N 50°54' W 001°27'0 0.0
2018-Feb-13 06:00N 50°54' W 001°27'0 0.0
2018-Feb-13 05:30N 50°54' W 001°27'0 0.0
2018-Feb-13 05:00N 50°54' W 001°27'0 0.0
2018-Feb-13 04:30N 50°54' W 001°27'0 0.0
2018-Feb-13 04:00N 50°54' W 001°27'0 0.0
2018-Feb-13 03:30N 50°54' W 001°27'0 0.0
2018-Feb-13 03:00N 50°54' W 001°27'0 0.0
2018-Feb-13 02:30N 50°54' W 001°27'0 0.0
2018-Feb-13 02:00N 50°54' W 001°27'0 0.0
2018-Feb-13 01:30N 50°54' W 001°27'0 0.0
2018-Feb-13 01:00N 50°54' W 001°27'0 0.0
2018-Feb-13 00:27N 50°54' W 001°27'0 0.0
2018-Feb-13 00:00N 50°54' W 001°27'0 0.2
2018-Feb-12 23:30N 50°54' W 001°27'2 4.7
2018-Feb-12 23:00N 50°53' W 001°24'5 9.4
2018-Feb-12 22:31N 50°50' W 001°18'5 9.2
2018-Feb-12 22:01N 50°46' W 001°14'918.9
2018-Feb-12 21:31N 50°43' W 000°60'510.1
2018-Feb-12 21:01N 50°38' W 000°57'5 9.1
2018-Feb-12 20:31N 50°34' W 000°59'2 4.9
2018-Feb-12 20:01N 50°32' W 001°02'3 6.8
2018-Feb-12 19:30N 50°30' W 001°07'4 8.7
2018-Feb-12 19:01N 50°28' W 001°13'4 8.2
2018-Feb-12 18:30N 50°29' W 001°19'4 8.7
2018-Feb-12 18:00N 50°31' W 001°25'4 8.8
2018-Feb-12 17:30N 50°32' W 001°32'4 8.5
2018-Feb-12 17:00N 50°33' W 001°38'2 4.6
2018-Feb-12 16:30N 50°34' W 001°42'1 2.1
2018-Feb-12 16:01N 50°33' W 001°43'1 1.9
2018-Feb-12 15:30N 50°32' W 001°44'1 1.5
2018-Feb-12 15:01N 50°32' W 001°45'1 1.1
2018-Feb-12 14:31N 50°31' W 001°45'0 1.0
2018-Feb-12 14:01N 50°31' W 001°45'0 1.0
2018-Feb-12 13:31N 50°30' W 001°44'1 1.1
2018-Feb-12 13:00N 50°30' W 001°44'1 1.2
2018-Feb-12 12:31N 50°30' W 001°43'1 1.3
2018-Feb-12 12:00N 50°29' W 001°42'1 1.3
2018-Feb-12 11:29N 50°29' W 001°41'1 1.2
2018-Feb-12 11:00N 50°28' W 001°41'0 0.9
2018-Feb-12 10:30N 50°28' W 001°40'3 5.7
2018-Feb-12 10:00N 50°28' W 001°45'2 3.6
2018-Feb-12 09:30N 50°27' W 001°47'0 0.8
2018-Feb-12 09:01N 50°27' W 001°48'1 1.3
2018-Feb-12 08:31N 50°26' W 001°49'1 1.8
2018-Feb-12 08:01N 50°26' W 001°50'1 2.1
2018-Feb-12 07:30N 50°26' W 001°52'1 2.5
2018-Feb-12 07:01N 50°25' W 001°54'1 2.8
2018-Feb-12 06:30N 50°25' W 001°56'2 3.1
2018-Feb-12 06:01N 50°25' W 001°58'2 3.2
2018-Feb-12 05:31N 50°24' W 002°00'2 3.1
2018-Feb-12 05:01N 50°24' W 002°03'1 3.0
2018-Feb-12 04:31N 50°23' W 002°05'3 6.2
2018-Feb-12 04:01N 50°22' W 002°09'4 7.6
2018-Feb-12 03:30N 50°20' W 002°15'4 7.4
2018-Feb-12 03:01N 50°19' W 002°20'4 7.2
2018-Feb-12 02:30N 50°18' W 002°26'3 6.8
2018-Feb-12 02:01N 50°17' W 002°31'3 6.7
2018-Feb-12 01:30N 50°17' W 002°36'3 6.3
2018-Feb-12 01:00N 50°17' W 002°41'3 5.8
2018-Feb-12 00:30N 50°17' W 002°45'3 5.7
2018-Feb-12 00:01N 50°16' W 002°50'3 5.6
2018-Feb-11 23:31N 50°16' W 002°54'3 6.4
2018-Feb-11 23:00N 50°17' W 002°59'3 6.0
2018-Feb-11 22:28N 50°17' W 003°04'0 0.7
2018-Feb-11 22:00N 50°17' W 003°05'0 1.0
2018-Feb-11 21:30N 50°17' W 003°05'1 1.2
2018-Feb-11 21:00N 50°17' W 003°06'1 1.5
2018-Feb-11 20:30N 50°17' W 003°07'1 1.8
2018-Feb-11 20:00N 50°17' W 003°09'1 1.9
2018-Feb-11 19:30N 50°16' W 003°10'1 1.9
2018-Feb-11 19:00N 50°16' W 003°12'1 2.0
2018-Feb-11 18:30N 50°16' W 003°13'1 1.8
2018-Feb-11 18:00N 50°16' W 003°15'2 3.6
2018-Feb-11 17:30N 50°16' W 003°12'612.1
2018-Feb-11 17:00N 50°18' W 003°03'0 0.9
2018-Feb-11 16:30N 50°18' W 003°03'1 2.4
2018-Feb-11 16:00N 50°17' W 003°05'1 2.3
2018-Feb-11 15:30N 50°17' W 003°07'1 2.2
2018-Feb-11 15:00N 50°17' W 003°08'1 2.2
2018-Feb-11 14:30N 50°16' W 003°10'1 1.9
2018-Feb-11 14:00N 50°16' W 003°11'1 1.9
2018-Feb-11 13:30N 50°16' W 003°13'1 1.5
2018-Feb-11 13:00N 50°16' W 003°14'1 1.4
2018-Feb-11 12:30N 50°15' W 003°15'1 1.4
2018-Feb-11 12:00N 50°15' W 003°16'1 1.0
2018-Feb-11 11:30N 50°15' W 003°17'5 9.8
2018-Feb-11 11:00N 50°11' W 003°22'917.8
2018-Feb-11 10:30N 50°06' W 003°32'918.0
2018-Feb-11 10:00N 49°60' W 003°43'918.1
2018-Feb-11 09:30N 49°54' W 003°54'812.2
2018-Feb-11 08:49N 49°49' W 004°04'2 7.2
2018-Feb-11 08:29N 49°48' W 004°08'6 7.0
2018-Feb-11 07:42N 49°46' W 004°16'1 7.0
2018-Feb-11 07:30N 49°45' W 004°17'4 7.4
2018-Feb-11 07:00N 49°44' W 004°23'  
Track history (hours):
 
Tides and Currents Weather Stations Pressure Air Temp Water Temp Dewpoint Dewpoint Depression Visibility Wind Speed Wind Dir Waves Ship Positions

Toronto Express

Last reported at 2018-Feb-18 01:31 UTC. Time now 2018-Feb-18 01:43 UTC.
Position N 53°38' E 009°32'.

Length 294 m; draft 11 m.

Type: Cargo ship. MMSI: 310749000.

Date/timePositionNaut miles runAvg speedWind from/ knotsBaromVisibWave heightAir tempDewpointWater temp
2018-Feb-18 01:31N 53°38' E 009°32'510.1
2018-Feb-18 01:00N 53°35' E 009°38'4 8.2
2018-Feb-18 00:30N 53°34' E 009°44'3 6.3
2018-Feb-18 00:01N 53°33' E 009°49'4 8.4
2018-Feb-17 23:31N 53°32' E 009°56'2 3.6
2018-Feb-17 23:00N 53°30' E 009°56'0 0.0
2018-Feb-17 22:30N 53°30' E 009°56'0 0.0
2018-Feb-17 22:00N 53°30' E 009°56'0 0.0
2018-Feb-17 21:30N 53°30' E 009°56'0 0.0
2018-Feb-17 21:00N 53°30' E 009°56'0 0.0
2018-Feb-17 20:30N 53°30' E 009°56'0 0.0
2018-Feb-17 20:00N 53°30' E 009°56'0 0.0
2018-Feb-17 19:30N 53°30' E 009°56'0 0.0
2018-Feb-17 19:00N 53°30' E 009°56'0 0.0
2018-Feb-17 18:30N 53°30' E 009°56'0 0.0
2018-Feb-17 18:00N 53°30' E 009°56'0 0.0
2018-Feb-17 17:30N 53°30' E 009°56'0 0.0
2018-Feb-17 17:00N 53°30' E 009°56'0 0.0
2018-Feb-17 16:30N 53°30' E 009°56'0 0.0
2018-Feb-17 16:00N 53°30' E 009°56'0 0.0
2018-Feb-17 15:30N 53°30' E 009°56'0 0.0
2018-Feb-17 15:00N 53°30' E 009°56'0 0.0
2018-Feb-17 14:30N 53°30' E 009°56'0 0.0
2018-Feb-17 14:00N 53°30' E 009°56'0 0.0
2018-Feb-17 13:30N 53°30' E 009°56'0 0.0
2018-Feb-17 13:00N 53°30' E 009°56'0 0.0
2018-Feb-17 12:30N 53°30' E 009°56'0 0.0
2018-Feb-17 12:00N 53°30' E 009°56'0 0.0
2018-Feb-17 11:30N 53°30' E 009°56'0 0.0
2018-Feb-17 11:00N 53°30' E 009°56'0 0.0
2018-Feb-17 10:30N 53°30' E 009°56'0 0.0
2018-Feb-17 10:00N 53°30' E 009°56'0 0.0
2018-Feb-17 09:30N 53°30' E 009°56'0 0.0
2018-Feb-17 09:00N 53°30' E 009°56'0 0.0
2018-Feb-17 08:30N 53°30' E 009°56'0 0.0
2018-Feb-17 08:00N 53°30' E 009°56'0 0.0
2018-Feb-17 07:30N 53°30' E 009°56'0 0.0
2018-Feb-17 07:00N 53°30' E 009°56'0 0.0
2018-Feb-17 06:30N 53°30' E 009°56'0 0.0
2018-Feb-17 06:00N 53°30' E 009°56'0 0.0
2018-Feb-17 05:30N 53°30' E 009°56'0 0.0
2018-Feb-17 05:00N 53°30' E 009°56'0 0.0
2018-Feb-17 04:30N 53°30' E 009°56'0 0.0
2018-Feb-17 04:00N 53°30' E 009°56'0 0.0
2018-Feb-17 03:30N 53°30' E 009°56'0 0.0
2018-Feb-17 03:00N 53°30' E 009°56'0 0.0
2018-Feb-17 02:30N 53°30' E 009°56'0 0.0
2018-Feb-17 02:00N 53°30' E 009°56'0 0.0
2018-Feb-17 01:30N 53°30' E 009°56'0 0.0
2018-Feb-17 01:00N 53°30' E 009°56'0 0.0
2018-Feb-17 00:30N 53°30' E 009°56'0 0.0
2018-Feb-17 00:00N 53°30' E 009°56'0 0.0
2018-Feb-16 23:30N 53°30' E 009°56'0 0.0
2018-Feb-16 23:00N 53°30' E 009°56'0 0.0
2018-Feb-16 22:30N 53°30' E 009°56'0 0.0
2018-Feb-16 22:00N 53°30' E 009°56'0 0.0
2018-Feb-16 21:30N 53°30' E 009°56'0 0.0
2018-Feb-16 21:00N 53°30' E 009°56'0 0.0
2018-Feb-16 20:30N 53°30' E 009°56'0 0.0
2018-Feb-16 20:00N 53°30' E 009°56'0 0.0
2018-Feb-16 19:30N 53°30' E 009°56'0 0.0
2018-Feb-16 19:00N 53°30' E 009°56'0 0.0
2018-Feb-16 18:30N 53°30' E 009°56'0 0.0
2018-Feb-16 18:00N 53°30' E 009°56'0 0.4
2018-Feb-16 17:31N 53°30' E 009°56'3 5.2
2018-Feb-16 17:00N 53°32' E 009°54'4 8.6
2018-Feb-16 16:31N 53°33' E 009°47'510.9
2018-Feb-16 16:01N 53°34' E 009°38'611.9
2018-Feb-16 15:30N 53°39' E 009°31'612.1
2018-Feb-16 15:01N 53°44' E 009°27'713.3
2018-Feb-16 14:30N 53°50' E 009°21'713.2
2018-Feb-16 14:00N 53°53' E 009°11'610.7
2018-Feb-16 13:29N 53°52' E 009°02'714.9
2018-Feb-16 13:00N 53°50' E 008°50'611.3
2018-Feb-16 12:30N 53°53' E 008°42'714.6
2018-Feb-16 12:00N 53°58' E 008°32'919.0
2018-Feb-16 11:31N 53°60' E 008°17'815.4
2018-Feb-16 11:00N 53°59' E 008°03'5 9.3
2018-Feb-16 10:30N 53°58' E 007°56'4 8.4
2018-Feb-16 09:59N 53°57' E 007°48'7113.4
2018-Feb-16 04:42N 53°40' E 005°52'314.1
2018-Feb-16 04:30N 53°39' E 005°48'713.9
2018-Feb-16 04:00N 53°37' E 005°37'713.8
2018-Feb-16 03:29N 53°34' E 005°26'1713.8
2018-Feb-16 02:14N 53°28' E 004°58'313.8
2018-Feb-16 02:00N 53°27' E 004°53'2013.1
2018-Feb-16 00:30N 53°12' E 004°33'713.5
2018-Feb-16 00:00N 53°06' E 004°27'713.4
2018-Feb-15 23:30N 53°00' E 004°21'713.6
2018-Feb-15 23:00N 52°54' E 004°16'713.5
2018-Feb-15 22:31N 52°48' E 004°11'713.8
2018-Feb-15 22:01N 52°43' E 004°04'714.0
2018-Feb-15 21:30N 52°37' E 003°57'713.7
2018-Feb-15 21:00N 52°32' E 003°50'713.4
2018-Feb-15 20:30N 52°28' E 003°41'714.7
2018-Feb-15 20:00N 52°22' E 003°34'815.8
2018-Feb-15 19:30N 52°15' E 003°30'917.9
2018-Feb-15 19:01N 52°06' E 003°25'1019.8
2018-Feb-15 18:31N 51°57' E 003°22'1020.0
2018-Feb-15 17:59N 51°47' E 003°16'612.0
2018-Feb-15 17:30N 51°41' E 003°13'1019.2
2018-Feb-15 17:00N 51°32' E 003°07'816.8
2018-Feb-15 16:30N 51°25' E 003°02'1019.9
2018-Feb-15 16:00N 51°25' E 003°18'1020.3
2018-Feb-15 15:30N 51°26' E 003°34'510.6
2018-Feb-15 15:00N 51°25' E 003°42'713.9
2018-Feb-15 14:30N 51°21' E 003°51'611.6
2018-Feb-15 14:00N 51°25' E 003°58'3 6.8
2018-Feb-15 13:30N 51°23' E 004°02'510.4
2018-Feb-15 13:00N 51°24' E 004°11'5 9.3
2018-Feb-15 12:30N 51°20' E 004°16'3 5.5
2018-Feb-15 11:59N 51°18' E 004°16'0 0.0
2018-Feb-15 11:26N 51°18' E 004°16'0 0.0
2018-Feb-15 10:59N 51°18' E 004°16'0 0.0
2018-Feb-15 10:26N 51°18' E 004°16'0 0.0
2018-Feb-15 09:59N 51°18' E 004°16'0 0.0
2018-Feb-15 09:26N 51°18' E 004°16'0 0.0
2018-Feb-15 08:59N 51°18' E 004°16'0 0.0
2018-Feb-15 08:29N 51°18' E 004°16'0 0.0
2018-Feb-15 07:53N 51°18' E 004°16'0 0.0
2018-Feb-15 07:26N 51°18' E 004°16'0 0.0
2018-Feb-15 06:59N 51°18' E 004°16'0 0.0
2018-Feb-15 06:29N 51°18' E 004°16'0 0.0
2018-Feb-15 05:50N 51°18' E 004°16'0 0.0
2018-Feb-15 05:29N 51°18' E 004°16'0 0.0
2018-Feb-15 04:59N 51°18' E 004°16'0 0.0
2018-Feb-15 04:26N 51°18' E 004°16'0 0.0
2018-Feb-15 03:59N 51°18' E 004°16'0 0.0
2018-Feb-15 03:29N 51°18' E 004°16'0 0.0
2018-Feb-15 02:59N 51°18' E 004°16'0 0.0
2018-Feb-15 02:29N 51°18' E 004°16'0 0.0
2018-Feb-15 01:59N 51°18' E 004°16'0 0.0
2018-Feb-15 01:29N 51°18' E 004°16'0 0.0
2018-Feb-15 00:59N 51°18' E 004°16'0 0.0
2018-Feb-15 00:29N 51°18' E 004°16'0 0.0
2018-Feb-14 23:59N 51°18' E 004°16'0 0.0
2018-Feb-14 23:29N 51°18' E 004°16'0 0.0
2018-Feb-14 22:56N 51°18' E 004°16'0 0.0
2018-Feb-14 22:29N 51°18' E 004°16'0 0.0
2018-Feb-14 21:59N 51°18' E 004°16'0 0.0
2018-Feb-14 21:29N 51°18' E 004°16'0 0.0
2018-Feb-14 20:59N 51°18' E 004°16'0 0.0
2018-Feb-14 20:29N 51°18' E 004°16'0 0.0
2018-Feb-14 19:59N 51°18' E 004°16'0 0.0
2018-Feb-14 19:26N 51°18' E 004°16'0 0.0
2018-Feb-14 18:56N 51°18' E 004°16'0 0.0
2018-Feb-14 18:29N 51°18' E 004°16'0 0.0
2018-Feb-14 17:59N 51°18' E 004°16'0 0.0
2018-Feb-14 17:29N 51°18' E 004°16'0 0.0
2018-Feb-14 16:59N 51°18' E 004°16'0 0.0
2018-Feb-14 16:26N 51°18' E 004°16'0 0.0
2018-Feb-14 15:59N 51°18' E 004°16'0 0.0
2018-Feb-14 15:30N 51°18' E 004°16'0 0.2
2018-Feb-14 15:00N 51°18' E 004°16'1 2.8
2018-Feb-14 14:30N 51°19' E 004°16'5 9.1
2018-Feb-14 14:00N 51°23' E 004°13'611.9
2018-Feb-14 13:30N 51°22' E 004°03'4 8.3
2018-Feb-14 13:00N 51°25' E 003°58'714.0
2018-Feb-14 12:30N 51°21' E 003°48'815.2
2018-Feb-14 12:00N 51°26' E 003°39'4 8.5
2018-Feb-14 11:30N 51°25' E 003°33'4 7.0
2018-Feb-14 11:00N 51°25' E 003°27'5 9.3
2018-Feb-14 10:30N 51°24' E 003°20'815.7
2018-Feb-14 10:01N 51°24' E 003°07'1020.6
2018-Feb-14 09:31N 51°25' E 002°51'713.8
2018-Feb-14 09:01N 51°22' E 002°41'611.5
2018-Feb-14 08:31N 51°22' E 002°32'1019.6
2018-Feb-14 08:00N 51°18' E 002°17'917.5
2018-Feb-14 07:30N 51°14' E 002°05'613.0
2018-Feb-14 07:00N 51°12' E 001°55'816.2
2018-Feb-14 06:30N 51°07' E 001°45'816.4
2018-Feb-14 06:01N 51°01' E 001°36'714.5
2018-Feb-14 05:30N 50°56' E 001°28'612.6
2018-Feb-14 05:00N 50°50' E 001°25'612.7
2018-Feb-14 04:30N 50°44' E 001°22'713.1
2018-Feb-14 04:00N 50°39' E 001°15'713.3
2018-Feb-14 03:30N 50°35' E 001°07'713.2
2018-Feb-14 03:00N 50°31' E 000°59'613.2
2018-Feb-14 02:30N 50°29' E 000°49'713.3
2018-Feb-14 02:00N 50°27' E 000°39'713.4
2018-Feb-14 01:30N 50°25' E 000°29'713.3
2018-Feb-14 01:00N 50°23' E 000°19'713.2
2018-Feb-14 00:30N 50°22' E 000°09'713.5
2018-Feb-14 00:00N 50°21' W 000°02'815.8
2018-Feb-13 23:30N 50°21' W 000°14'714.8
2018-Feb-13 23:00N 50°23' W 000°25'815.9
2018-Feb-13 22:30N 50°26' W 000°37'1019.7
2018-Feb-13 22:00N 50°33' W 000°48'917.9
2018-Feb-13 21:30N 50°40' W 000°56'611.8
2018-Feb-13 21:00N 50°44' W 001°04'917.0
2018-Feb-13 20:30N 50°46' W 001°16'5 9.5
2018-Feb-13 20:00N 50°51' W 001°20'4 8.8
2018-Feb-13 19:31N 50°54' W 001°25'1 2.8
2018-Feb-13 19:01N 50°54' W 001°27'0 0.0
2018-Feb-13 18:30N 50°54' W 001°27'0 0.0
2018-Feb-13 18:00N 50°54' W 001°27'0 0.0
2018-Feb-13 17:30N 50°54' W 001°27'0 0.0
2018-Feb-13 17:00N 50°54' W 001°27'0 0.0
2018-Feb-13 16:30N 50°54' W 001°27'0 0.0
2018-Feb-13 16:00N 50°54' W 001°27'0 0.0
2018-Feb-13 15:30N 50°54' W 001°27'0 0.0
2018-Feb-13 15:00N 50°54' W 001°27'0 0.0
2018-Feb-13 14:30N 50°54' W 001°27'0 0.0
2018-Feb-13 14:00N 50°54' W 001°27'0 0.0
2018-Feb-13 13:30N 50°54' W 001°27'0 0.0
2018-Feb-13 13:00N 50°54' W 001°27'0 0.0
2018-Feb-13 12:30N 50°54' W 001°27'0 0.0
2018-Feb-13 11:21N 50°54' W 001°27'0 0.0
2018-Feb-13 10:57N 50°54' W 001°27'0 0.0
2018-Feb-13 10:30N 50°54' W 001°27'0 0.0
2018-Feb-13 09:06N 50°54' W 001°27'0 0.0
2018-Feb-13 09:00N 50°54' W 001°27'0 0.0
2018-Feb-13 08:30N 50°54' W 001°27'0 0.0
2018-Feb-13 07:54N 50°54' W 001°27'0 0.0
2018-Feb-13 07:30N 50°54' W 001°27'0 0.0
2018-Feb-13 07:00N 50°54' W 001°27'0 0.0
2018-Feb-13 06:30N 50°54' W 001°27'0 0.0
2018-Feb-13 06:00N 50°54' W 001°27'0 0.0
2018-Feb-13 05:30N 50°54' W 001°27'0 0.0
2018-Feb-13 05:00N 50°54' W 001°27'0 0.0
2018-Feb-13 04:30N 50°54' W 001°27'0 0.0
2018-Feb-13 04:00N 50°54' W 001°27'0 0.0
2018-Feb-13 03:30N 50°54' W 001°27'0 0.0
2018-Feb-13 03:00N 50°54' W 001°27'0 0.0
2018-Feb-13 02:30N 50°54' W 001°27'0 0.0
2018-Feb-13 02:00N 50°54' W 001°27'0 0.0
2018-Feb-13 01:30N 50°54' W 001°27'0 0.0
2018-Feb-13 01:00N 50°54' W 001°27'0 0.0
2018-Feb-13 00:27N 50°54' W 001°27'0 0.0
2018-Feb-13 00:00N 50°54' W 001°27'0 0.2
2018-Feb-12 23:30N 50°54' W 001°27'2 4.7
2018-Feb-12 23:00N 50°53' W 001°24'5 9.4
2018-Feb-12 22:31N 50°50' W 001°18'5 9.2
2018-Feb-12 22:01N 50°46' W 001°14'918.9
2018-Feb-12 21:31N 50°43' W 000°60'510.1
2018-Feb-12 21:01N 50°38' W 000°57'5 9.1
2018-Feb-12 20:31N 50°34' W 000°59'2 4.9
2018-Feb-12 20:01N 50°32' W 001°02'3 6.8
2018-Feb-12 19:30N 50°30' W 001°07'4 8.7
2018-Feb-12 19:01N 50°28' W 001°13'4 8.2
2018-Feb-12 18:30N 50°29' W 001°19'4 8.7
2018-Feb-12 18:00N 50°31' W 001°25'4 8.8
2018-Feb-12 17:30N 50°32' W 001°32'4 8.5
2018-Feb-12 17:00N 50°33' W 001°38'2 4.6
2018-Feb-12 16:30N 50°34' W 001°42'1 2.1
2018-Feb-12 16:01N 50°33' W 001°43'1 1.9
2018-Feb-12 15:30N 50°32' W 001°44'1 1.5
2018-Feb-12 15:01N 50°32' W 001°45'1 1.1
2018-Feb-12 14:31N 50°31' W 001°45'0 1.0
2018-Feb-12 14:01N 50°31' W 001°45'0 1.0
2018-Feb-12 13:31N 50°30' W 001°44'1 1.1
2018-Feb-12 13:00N 50°30' W 001°44'1 1.2
2018-Feb-12 12:31N 50°30' W 001°43'1 1.3
2018-Feb-12 12:00N 50°29' W 001°42'1 1.3
2018-Feb-12 11:29N 50°29' W 001°41'1 1.2
2018-Feb-12 11:00N 50°28' W 001°41'0 0.9
2018-Feb-12 10:30N 50°28' W 001°40'3 5.7
2018-Feb-12 10:00N 50°28' W 001°45'2 3.6
2018-Feb-12 09:30N 50°27' W 001°47'0 0.8
2018-Feb-12 09:01N 50°27' W 001°48'1 1.3
2018-Feb-12 08:31N 50°26' W 001°49'1 1.8
2018-Feb-12 08:01N 50°26' W 001°50'1 2.1
2018-Feb-12 07:30N 50°26' W 001°52'1 2.5
2018-Feb-12 07:01N 50°25' W 001°54'1 2.8
2018-Feb-12 06:30N 50°25' W 001°56'2 3.1
2018-Feb-12 06:01N 50°25' W 001°58'2 3.2
2018-Feb-12 05:31N 50°24' W 002°00'2 3.1
2018-Feb-12 05:01N 50°24' W 002°03'1 3.0
2018-Feb-12 04:31N 50°23' W 002°05'3 6.2
2018-Feb-12 04:01N 50°22' W 002°09'4 7.6
2018-Feb-12 03:30N 50°20' W 002°15'4 7.4
2018-Feb-12 03:01N 50°19' W 002°20'4 7.2
2018-Feb-12 02:30N 50°18' W 002°26'3 6.8
2018-Feb-12 02:01N 50°17' W 002°31'3 6.7
2018-Feb-12 01:30N 50°17' W 002°36'3 6.3
2018-Feb-12 01:00N 50°17' W 002°41'3 5.8
2018-Feb-12 00:30N 50°17' W 002°45'3 5.7
2018-Feb-12 00:01N 50°16' W 002°50'3 5.6
2018-Feb-11 23:31N 50°16' W 002°54'3 6.4
2018-Feb-11 23:00N 50°17' W 002°59'3 6.0
2018-Feb-11 22:28N 50°17' W 003°04'0 0.7
2018-Feb-11 22:00N 50°17' W 003°05'0 1.0
2018-Feb-11 21:30N 50°17' W 003°05'1 1.2
2018-Feb-11 21:00N 50°17' W 003°06'1 1.5
2018-Feb-11 20:30N 50°17' W 003°07'1 1.8
2018-Feb-11 20:00N 50°17' W 003°09'1 1.9
2018-Feb-11 19:30N 50°16' W 003°10'1 1.9
2018-Feb-11 19:00N 50°16' W 003°12'1 2.0
2018-Feb-11 18:30N 50°16' W 003°13'1 1.8
2018-Feb-11 18:00N 50°16' W 003°15'2 3.6
2018-Feb-11 17:30N 50°16' W 003°12'612.1
2018-Feb-11 17:00N 50°18' W 003°03'0 0.9
2018-Feb-11 16:30N 50°18' W 003°03'1 2.4
2018-Feb-11 16:00N 50°17' W 003°05'1 2.3
2018-Feb-11 15:30N 50°17' W 003°07'1 2.2
2018-Feb-11 15:00N 50°17' W 003°08'1 2.2
2018-Feb-11 14:30N 50°16' W 003°10'1 1.9
2018-Feb-11 14:00N 50°16' W 003°11'1 1.9
2018-Feb-11 13:30N 50°16' W 003°13'1 1.5
2018-Feb-11 13:00N 50°16' W 003°14'1 1.4
2018-Feb-11 12:30N 50°15' W 003°15'1 1.4
2018-Feb-11 12:00N 50°15' W 003°16'1 1.0
2018-Feb-11 11:30N 50°15' W 003°17'5 9.8
2018-Feb-11 11:00N 50°11' W 003°22'917.8
2018-Feb-11 10:30N 50°06' W 003°32'918.0
2018-Feb-11 10:00N 49°60' W 003°43'918.1
2018-Feb-11 09:30N 49°54' W 003°54'812.2
2018-Feb-11 08:49N 49°49' W 004°04'2 7.2
2018-Feb-11 08:29N 49°48' W 004°08'6 7.0
2018-Feb-11 07:42N 49°46' W 004°16'1 7.0
2018-Feb-11 07:30N 49°45' W 004°17'4 7.4
2018-Feb-11 07:00N 49°44' W 004°23'  

Dump ship's entire track history